Time;durP1;ratioP1;P1;durP2;ratioP2;P2;SDS_P1;SDS_P2;PMS_P1;PMS_P2;Temp;Humidity;BMP_temperature;BMP_pressure;BME280_temperature;BME280_humidity;BME280_pressure;Samples;Min_cycle;Max_cycle;Signal;HPM_P1;HPM_P2
2021/08/09 00:01:16;;;;;;;6.78;1.90;;;;;;;19.53;59.37;101043.25;5097038;28;20048;-62
2021/08/09 00:03:43;;;;;;;8.45;2.08;;;;;;;19.52;58.99;101048.06;5096378;28;20052;-62
2021/08/09 00:06:10;;;;;;;6.05;1.80;;;;;;;19.52;59.02;101044.44;5096343;28;20059;-61
2021/08/09 00:08:38;;;;;;;7.90;2.00;;;;;;;19.64;58.96;101050.72;5096642;28;20048;-63
2021/08/09 00:11:05;;;;;;;7.03;2.00;;;;;;;19.33;58.84;101038.84;5096782;28;20170;-62
2021/08/09 00:13:32;;;;;;;6.95;1.52;;;;;;;19.34;59.46;101030.09;5085074;28;20455;-62
2021/08/09 00:15:59;;;;;;;6.30;1.58;;;;;;;19.39;59.21;101026.19;5058330;28;20504;-62
2021/08/09 00:18:27;;;;;;;9.85;2.28;;;;;;;19.37;59.41;101023.75;5076256;28;20048;-63
2021/08/09 00:20:54;;;;;;;7.85;1.98;;;;;;;19.47;59.03;101022.41;5076141;28;20049;-63
2021/08/09 00:23:21;;;;;;;5.57;1.50;;;;;;;19.51;59.25;101020.50;5058410;28;20059;-63
2021/08/09 00:25:49;;;;;;;5.13;1.50;;;;;;;19.45;58.91;101017.19;5076491;28;20119;-63
2021/08/09 00:28:16;;;;;;;5.05;1.50;;;;;;;19.47;58.70;101025.19;5076127;28;20712;-67
2021/08/09 00:30:43;;;;;;;5.55;1.67;;;;;;;19.43;58.91;101029.88;5041402;28;20063;-66
2021/08/09 00:33:11;;;;;;;8.18;1.77;;;;;;;19.43;58.95;101033.50;5058320;28;20102;-66
2021/08/09 00:35:38;;;;;;;10.02;2.20;;;;;;;19.50;59.22;101041.22;5058102;28;20052;-65
2021/08/09 00:38:05;;;;;;;8.02;1.55;;;;;;;19.41;59.37;101040.59;5024615;28;20052;-65
2021/08/09 00:40:33;;;;;;;4.63;1.48;;;;;;;19.55;59.61;101036.16;5056520;28;20052;-66
2021/08/09 00:43:03;;;;;;;5.53;1.58;;;;;;;19.49;59.67;101036.81;5057618;28;20463;-66
2021/08/09 00:45:30;;;;;;;9.00;2.20;;;;;;;19.33;59.90;101036.84;5057905;28;20059;-66
2021/08/09 00:47:58;;;;;;;5.75;1.95;;;;;;;19.40;59.97;101037.03;5057872;28;20057;-66
2021/08/09 00:50:25;;;;;;;7.35;1.90;;;;;;;19.35;60.03;101026.13;5057504;28;20067;-66
2021/08/09 00:52:53;;;;;;;7.25;1.65;;;;;;;19.26;60.37;101024.66;5041225;28;20068;-66
2021/08/09 00:55:21;;;;;;;6.90;1.60;;;;;;;19.26;60.77;101027.47;5057443;28;20755;-65
2021/08/09 00:57:50;;;;;;;7.75;2.00;;;;;;;19.36;60.57;101024.13;5041268;28;20052;-65
2021/08/09 01:00:21;;;;;;;9.68;1.75;;;;;;;19.32;59.96;101021.25;5057451;28;20687;-65
2021/08/09 01:02:48;;;;;;;7.53;2.00;;;;;;;19.20;60.78;101028.91;5057408;28;20056;-66
2021/08/09 01:05:16;;;;;;;8.35;2.13;;;;;;;19.15;60.68;101026.41;5056413;28;20139;-65
2021/08/09 01:08:13;;;;;;;5.40;1.73;;;;;;;19.14;60.40;101013.63;5057466;28;20048;-63
2021/08/09 01:10:52;;;;;;;6.75;1.60;;;;;;;19.07;60.45;101008.69;5057014;28;20075;-63
2021/08/09 01:13:44;;;;;;;7.10;1.70;;;;;;;18.98;60.93;101002.47;5036284;28;20515;-64
2021/08/09 01:16:13;;;;;;;8.27;1.63;;;;;;;19.04;61.03;101004.63;5023828;28;20052;-63
2021/08/09 01:18:41;;;;;;;8.75;1.80;;;;;;;19.01;61.12;101001.75;5057409;28;20044;-62
2021/08/09 01:21:10;;;;;;;7.15;2.00;;;;;;;19.12;61.12;100991.66;5057035;28;20049;-63
2021/08/09 01:24:09;;;;;;;9.82;1.80;;;;;;;19.02;61.27;100998.59;5041479;28;20048;-63
2021/08/09 01:26:55;;;;;;;8.60;2.08;;;;;;;18.81;61.39;100998.09;5043660;28;20044;-66
2021/08/09 01:29:43;;;;;;;9.02;2.50;;;;;;;18.84;61.57;101004.94;5057155;28;20430;-66
2021/08/09 01:32:13;;;;;;;8.38;2.10;;;;;;;19.00;61.61;101000.16;5057367;28;20052;-66
2021/08/09 01:34:41;;;;;;;8.77;2.15;;;;;;;19.00;61.44;100994.56;5024096;28;20424;-66
2021/08/09 01:37:09;;;;;;;7.28;1.90;;;;;;;18.90;61.50;101006.25;5040451;28;20048;-66
2021/08/09 01:39:38;;;;;;;9.70;2.15;;;;;;;18.86;61.83;101008.97;5056623;28;20403;-66
2021/08/09 01:42:06;;;;;;;8.65;1.98;;;;;;;18.93;61.63;100997.19;5056751;28;20656;-66
2021/08/09 01:44:34;;;;;;;5.22;1.80;;;;;;;18.85;61.50;101006.53;5056584;28;20048;-66
2021/08/09 01:47:01;;;;;;;8.52;1.60;;;;;;;18.95;61.64;101004.00;5074230;28;20056;-66
2021/08/09 01:49:30;;;;;;;8.15;1.77;;;;;;;18.96;61.45;101005.66;5056882;28;20056;-66
2021/08/09 01:52:00;;;;;;;8.43;1.95;;;;;;;19.00;61.21;101009.31;5056652;28;20044;-66
2021/08/09 01:54:28;;;;;;;7.85;1.83;;;;;;;18.79;61.54;101021.97;5056192;28;20056;-66
2021/08/09 01:56:56;;;;;;;6.10;1.77;;;;;;;18.77;61.96;101005.56;5056366;28;20568;-67
2021/08/09 01:59:23;;;;;;;8.85;1.80;;;;;;;18.89;61.70;100999.06;5056365;28;20056;-66
2021/08/09 02:01:52;;;;;;;5.30;1.70;;;;;;;18.76;62.17;101005.91;5043859;28;20055;-66
2021/08/09 02:04:20;;;;;;;6.55;1.85;;;;;;;18.76;61.87;101003.94;5094311;28;20044;-66
2021/08/09 02:06:48;;;;;;;6.97;1.70;;;;;;;18.75;62.10;101016.28;5075904;28;20055;-66
2021/08/09 02:09:17;;;;;;;7.20;1.83;;;;;;;18.83;62.19;101014.47;5060176;28;20448;-65
2021/08/09 02:11:45;;;;;;;6.97;2.00;;;;;;;18.83;61.97;101020.88;5059616;28;20063;-66
2021/08/09 02:14:15;;;;;;;6.57;1.50;;;;;;;18.74;62.41;101017.44;5059325;28;20056;-66
2021/08/09 02:16:51;;;;;;;8.88;2.00;;;;;;;18.86;62.30;101016.56;5022819;28;20047;-66
2021/08/09 02:19:35;;;;;;;8.60;2.00;;;;;;;18.87;62.47;101009.78;5039836;28;20048;-66
2021/08/09 02:22:13;;;;;;;12.18;2.22;;;;;;;18.87;62.04;101007.00;5039257;28;20060;-66
2021/08/09 02:24:49;;;;;;;6.75;1.70;;;;;;;18.73;62.43;101012.22;5073682;28;20049;-66
2021/08/09 02:27:21;;;;;;;8.07;2.22;;;;;;;18.69;62.93;101008.56;5039455;28;20068;-66
2021/08/09 02:29:52;;;;;;;6.25;1.70;;;;;;;18.79;62.18;101008.78;5039392;28;20055;-66
2021/08/09 02:32:24;;;;;;;10.70;2.45;;;;;;;18.75;62.67;101004.31;5054975;28;20057;-65
2021/08/09 02:34:52;;;;;;;7.50;2.00;;;;;;;18.72;62.62;101008.66;5055713;28;20059;-65
2021/08/09 02:37:20;;;;;;;8.82;2.33;;;;;;;18.67;62.75;101006.09;5039259;28;20052;-65
2021/08/09 02:39:48;;;;;;;7.20;1.98;;;;;;;18.61;62.99;100999.19;5055854;28;20423;-65
2021/08/09 02:42:17;;;;;;;7.93;2.10;;;;;;;18.67;62.57;100994.94;5055473;28;20052;-65
2021/08/09 02:44:45;;;;;;;8.65;2.40;;;;;;;18.65;62.80;101004.84;5039011;28;20063;-65
2021/08/09 02:47:13;;;;;;;12.20;2.33;;;;;;;18.66;62.93;101004.50;5055858;28;20040;-65
2021/08/09 02:49:46;;;;;;;10.90;2.25;;;;;;;18.63;62.95;101009.97;5055951;28;20048;-65
2021/08/09 02:52:16;;;;;;;7.30;1.95;;;;;;;18.65;63.05;101004.84;5055204;28;20063;-66
2021/08/09 02:54:45;;;;;;;8.27;2.00;;;;;;;18.56;63.35;101013.41;5055260;28;20499;-65
2021/08/09 02:57:15;;;;;;;7.32;2.05;;;;;;;18.52;63.10;101011.69;5055772;28;20060;-65
2021/08/09 02:59:43;;;;;;;10.20;2.10;;;;;;;18.43;63.51;101014.66;5055344;28;20048;-65
2021/08/09 03:02:12;;;;;;;10.57;2.20;;;;;;;18.54;63.51;101012.97;5038799;28;20048;-65
2021/08/09 03:04:40;;;;;;;8.60;2.00;;;;;;;18.60;63.31;101010.72;5038131;28;20056;-65
2021/08/09 03:07:08;;;;;;;8.32;2.30;;;;;;;18.52;63.74;101015.28;5039373;28;20045;-65
2021/08/09 03:09:36;;;;;;;8.68;1.83;;;;;;;18.50;63.75;101014.03;5073428;28;20052;-65
2021/08/09 03:12:05;;;;;;;9.30;1.77;;;;;;;18.46;63.60;101011.13;5055286;28;20048;-61
2021/08/09 03:14:34;;;;;;;8.75;2.05;;;;;;;18.53;63.61;101011.31;5053802;28;20060;-62
2021/08/09 03:17:03;;;;;;;10.85;2.03;;;;;;;18.49;63.72;101010.44;5055442;28;20044;-65
2021/08/09 03:19:30;;;;;;;10.13;2.20;;;;;;;18.54;63.62;101018.53;5055371;28;20060;-65
2021/08/09 03:21:59;;;;;;;8.02;2.47;;;;;;;18.49;63.81;101023.56;5054211;28;20048;-65
2021/08/09 03:24:30;;;;;;;6.60;2.08;;;;;;;18.43;63.80;101017.44;5054098;28;20059;-66
2021/08/09 03:26:58;;;;;;;10.27;2.65;;;;;;;18.21;64.17;101023.59;5055055;28;20056;-66
2021/08/09 03:29:26;;;;;;;8.20;2.42;;;;;;;18.41;63.77;101019.78;5054912;28;20049;-65
2021/08/09 03:31:54;;;;;;;11.43;2.28;;;;;;;18.48;63.63;101017.16;5054879;28;20068;-65
2021/08/09 03:34:21;;;;;;;10.63;2.13;;;;;;;18.36;64.02;101022.00;5054716;28;20470;-65
2021/08/09 03:36:52;;;;;;;10.55;2.40;;;;;;;18.32;64.33;101024.72;5054770;28;20048;-65
2021/08/09 03:39:21;;;;;;;9.18;2.50;;;;;;;18.32;64.26;101026.69;5055209;28;20053;-65
2021/08/09 03:41:48;;;;;;;10.85;2.80;;;;;;;18.50;63.95;101020.41;5054903;28;20056;-65
2021/08/09 03:44:16;;;;;;;10.13;2.38;;;;;;;18.34;64.29;101025.13;5054409;28;20040;-62
2021/08/09 03:46:43;;;;;;;8.10;2.28;;;;;;;18.29;64.51;101028.19;5054990;28;20467;-63
2021/08/09 03:49:10;;;;;;;10.15;2.63;;;;;;;18.27;64.60;101022.16;5054908;28;20044;-65
2021/08/09 03:51:39;;;;;;;8.10;2.17;;;;;;;18.30;64.57;101021.47;5054179;28;20048;-65
2021/08/09 03:54:08;;;;;;;7.82;2.25;;;;;;;18.30;64.82;101023.44;5054604;28;20057;-63
2021/08/09 03:56:36;;;;;;;9.52;2.05;;;;;;;18.41;64.34;101016.19;5072605;28;20040;-63
2021/08/09 03:59:04;;;;;;;8.60;2.20;;;;;;;18.38;64.50;101017.69;5054681;28;20052;-63
2021/08/09 04:01:38;;;;;;;13.05;2.65;;;;;;;18.31;64.40;101016.66;5037654;28;20052;-65
2021/08/09 04:04:06;;;;;;;6.53;2.03;;;;;;;18.23;64.99;101014.88;5038843;28;20514;-61
2021/08/09 04:06:34;;;;;;;9.07;2.03;;;;;;;18.32;64.55;101019.13;5054569;28;20057;-62
2021/08/09 04:09:02;;;;;;;10.50;2.47;;;;;;;18.32;64.53;101029.47;5038258;28;20646;-66
2021/08/09 04:11:30;;;;;;;11.05;2.30;;;;;;;18.24;64.68;101030.41;5054748;28;20057;-66
2021/08/09 04:13:57;;;;;;;8.32;2.33;;;;;;;18.27;64.67;101026.94;5069152;28;20052;-66
2021/08/09 04:16:26;;;;;;;9.52;2.53;;;;;;;18.20;64.54;101027.53;5062233;28;20051;-66
2021/08/09 04:18:54;;;;;;;9.45;2.25;;;;;;;18.23;65.13;101035.22;5078154;28;20068;-66
2021/08/09 04:21:22;;;;;;;8.95;2.78;;;;;;;18.36;64.82;101039.53;5061734;28;20146;-66
2021/08/09 04:23:49;;;;;;;9.50;2.60;;;;;;;18.24;64.62;101044.38;5077436;28;20058;-66
2021/08/09 04:26:19;;;;;;;9.73;2.10;;;;;;;18.16;65.18;101050.94;5078046;28;20048;-63
2021/08/09 04:28:47;;;;;;;12.52;2.08;;;;;;;18.20;65.12;101054.63;5077899;28;20066;-63
2021/08/09 04:31:17;;;;;;;10.70;1.98;;;;;;;18.22;64.88;101057.88;5078385;28;20568;-62
2021/08/09 04:33:48;;;;;;;11.48;2.72;;;;;;;18.21;65.21;101065.44;5077338;28;20044;-62
2021/08/09 04:36:16;;;;;;;10.90;1.95;;;;;;;18.12;65.22;101070.34;5077572;28;20063;-62
2021/08/09 04:38:44;;;;;;;10.52;2.58;;;;;;;18.11;65.57;101076.28;5078166;28;20048;-63
2021/08/09 04:41:12;;;;;;;9.25;2.20;;;;;;;18.27;65.03;101074.34;5078388;28;20048;-63
2021/08/09 04:43:42;;;;;;;9.45;2.40;;;;;;;18.19;65.20;101075.28;5077671;28;20052;-64
2021/08/09 04:46:12;;;;;;;;;;;;;;;18.22;65.08;101060.66;5078136;28;20052;-63
2021/08/09 04:48:41;;;;;;;11.50;2.77;;;;;;;18.25;65.06;101071.91;5077745;28;19920;-63
2021/08/09 04:51:09;;;;;;;13.63;2.88;;;;;;;18.35;64.51;101067.78;5077987;28;20051;-64
2021/08/09 04:53:39;;;;;;;12.00;2.78;;;;;;;18.29;64.83;101067.22;5078023;28;20055;-64
2021/08/09 04:56:07;;;;;;;10.50;2.70;;;;;;;18.09;65.62;101070.25;5077840;28;20063;-64
2021/08/09 04:58:37;;;;;;;10.18;3.00;;;;;;;18.30;64.87;101062.47;5077409;28;20048;-64
2021/08/09 05:01:05;;;;;;;10.50;2.65;;;;;;;18.32;65.08;101058.16;5077289;28;20044;-63
2021/08/09 05:03:38;;;;;;;9.18;2.90;;;;;;;18.33;65.08;101061.75;5077513;28;20056;-63
2021/08/09 05:06:09;;;;;;;10.38;2.70;;;;;;;18.42;64.79;101059.66;5077436;28;20064;-63
2021/08/09 05:08:43;;;;;;;12.85;2.80;;;;;;;18.39;65.20;101057.53;5029612;28;20051;-64
2021/08/09 05:11:11;;;;;;;8.52;2.30;;;;;;;18.12;65.57;101069.53;5077464;28;20064;-64
2021/08/09 05:13:50;;;;;;;11.60;2.75;;;;;;;18.15;65.68;101080.78;5063533;28;20059;-63
2021/08/09 05:16:17;;;;;;;8.68;2.30;;;;;;;18.16;66.24;101078.81;5057024;28;20049;-63
2021/08/09 05:18:45;;;;;;;10.05;2.60;;;;;;;18.27;65.89;101077.13;5075142;28;20048;-64
2021/08/09 05:21:16;;;;;;;9.10;2.67;;;;;;;18.32;65.84;101080.47;5075405;28;20048;-63
2021/08/09 05:23:45;;;;;;;12.20;2.70;;;;;;;18.35;65.88;101068.59;5057142;28;20715;-63
2021/08/09 05:26:12;;;;;;;10.65;2.97;;;;;;;18.13;65.96;101073.94;5047665;28;20048;-63
2021/08/09 05:28:40;;;;;;;11.63;2.72;;;;;;;18.31;66.17;101067.69;5094879;28;20475;-62
2021/08/09 05:31:07;;;;;;;8.52;2.55;;;;;;;18.42;65.58;101063.25;5077050;28;20051;-64
2021/08/09 05:33:35;;;;;;;12.75;2.45;;;;;;;18.48;65.55;101049.84;5075302;28;20083;-63
2021/08/09 05:36:03;;;;;;;12.10;2.50;;;;;;;18.52;65.70;101057.13;5056022;28;20060;-63
2021/08/09 05:38:31;;;;;;;13.05;2.92;;;;;;;18.50;65.41;101056.69;5074991;28;20037;-65
2021/08/09 05:41:01;;;;;;;10.77;2.75;;;;;;;18.61;64.88;101065.34;5056844;28;20437;-66
2021/08/09 05:43:29;;;;;;;9.30;2.50;;;;;;;18.60;64.99;101058.94;5074498;28;20076;-66
2021/08/09 05:45:58;;;;;;;15.68;2.45;;;;;;;18.79;64.82;101070.19;5076744;28;20056;-66
2021/08/09 05:48:27;;;;;;;12.30;3.42;;;;;;;18.71;64.75;101073.97;5059433;28;20052;-65
2021/08/09 05:50:55;;;;;;;10.38;2.35;;;;;;;18.71;64.91;101081.53;5094865;28;20063;-65
2021/08/09 05:53:27;;;;;;;9.15;2.60;;;;;;;18.84;64.70;101080.28;5076720;28;20059;-65
2021/08/09 05:55:55;;;;;;;9.55;2.80;;;;;;;18.73;64.76;101077.22;5076462;28;20422;-65
2021/08/09 05:58:22;;;;;;;7.82;2.70;;;;;;;18.66;65.64;101070.66;5094451;28;20051;-65
2021/08/09 06:00:50;;;;;;;10.55;2.50;;;;;;;18.74;65.39;101070.47;5075941;28;20047;-66
2021/08/09 06:03:22;;;;;;;10.45;2.95;;;;;;;18.68;65.25;101082.25;5076215;28;20044;-65
2021/08/09 06:05:55;;;;;;;11.85;2.67;;;;;;;18.70;65.51;101091.09;5059990;28;20056;-66
2021/08/09 06:08:28;;;;;;;9.90;2.80;;;;;;;18.77;65.29;101102.44;5055247;28;20037;-67
2021/08/09 06:10:57;;;;;;;10.47;2.40;;;;;;;18.82;65.05;101096.59;5060951;28;20478;-66
2021/08/09 06:13:24;;;;;;;12.13;3.20;;;;;;;18.90;67.55;101098.38;5046995;28;20298;-66
2021/08/09 06:15:54;;;;;;;13.77;3.30;;;;;;;18.97;69.56;101090.19;5069413;28;20057;-65
2021/08/09 06:18:25;;;;;;;17.48;3.38;;;;;;;18.92;71.20;101091.28;5070872;28;20051;-65
2021/08/09 06:20:54;;;;;;;13.32;2.90;;;;;;;19.08;74.74;101096.84;5075879;28;20043;-66
2021/08/09 06:23:22;;;;;;;13.63;3.78;;;;;;;19.15;75.36;101094.25;5039353;28;20036;-67
2021/08/09 06:25:49;;;;;;;12.68;3.15;;;;;;;19.03;74.56;101102.72;5058264;28;20059;-66
2021/08/09 06:28:16;;;;;;;16.95;3.30;;;;;;;18.92;73.64;101094.06;5074513;28;20489;-66
2021/08/09 06:30:44;;;;;;;11.57;3.10;;;;;;;19.11;70.98;101103.72;5073597;28;20048;-65
2021/08/09 06:33:16;;;;;;;15.30;2.97;;;;;;;19.18;67.69;101101.09;5056356;28;20067;-65
2021/08/09 06:35:43;;;;;;;16.63;3.13;;;;;;;18.90;66.85;101095.59;5060458;28;20515;-64
2021/08/09 06:38:13;;;;;;;9.67;2.90;;;;;;;19.01;66.03;101107.84;5071556;28;20068;-64
2021/08/09 06:40:45;;;;;;;11.50;3.10;;;;;;;19.22;65.74;101113.97;5075012;28;20040;-65
2021/08/09 06:43:13;;;;;;;12.65;2.97;;;;;;;19.05;65.45;101108.75;5057826;28;20044;-64
2021/08/09 06:45:47;;;;;;;12.35;3.17;;;;;;;18.87;66.64;101118.66;5072170;28;20036;-66
2021/08/09 06:48:17;;;;;;;13.80;3.45;;;;;;;18.84;66.95;101125.78;5073971;28;20502;-64
2021/08/09 06:50:45;;;;;;;10.13;3.45;;;;;;;19.00;67.40;101121.00;5087875;28;20419;-64
2021/08/09 06:53:13;;;;;;;15.38;4.30;;;;;;;19.05;67.58;101114.34;5075382;28;20044;-64
2021/08/09 06:55:45;;;;;;;13.18;4.38;;;;;;;19.14;67.31;101120.56;5073829;28;20044;-69
2021/08/09 06:58:14;;;;;;;14.40;3.85;;;;;;;19.13;67.41;101121.72;5069756;28;20040;-63
2021/08/09 07:00:42;;;;;;;15.38;3.97;;;;;;;19.15;67.51;101116.59;5074499;28;20040;-64
2021/08/09 07:03:11;;;;;;;11.23;3.47;;;;;;;19.15;67.24;101124.13;5074934;28;20052;-66
2021/08/09 07:05:43;;;;;;;13.40;3.58;;;;;;;19.24;66.98;101122.78;5074343;28;20056;-65
2021/08/09 07:08:14;;;;;;;13.63;3.50;;;;;;;19.28;66.99;101120.09;5053684;28;20051;-66
2021/08/09 07:10:44;;;;;;;12.35;3.60;;;;;;;19.32;66.46;101132.19;5075116;28;20048;-64
2021/08/09 07:13:12;;;;;;;18.63;4.60;;;;;;;19.42;66.25;101126.84;5074783;28;20051;-64
2021/08/09 07:15:39;;;;;;;11.68;3.78;;;;;;;19.42;66.21;101126.84;5091932;28;20055;-65
2021/08/09 07:18:06;;;;;;;14.63;3.50;;;;;;;19.37;66.45;101127.13;5073441;28;20052;-65
2021/08/09 07:20:34;;;;;;;15.02;3.40;;;;;;;19.50;66.52;101128.66;5074661;28;20067;-65
2021/08/09 07:23:02;;;;;;;13.13;4.18;;;;;;;19.47;66.44;101136.94;5074943;28;20563;-64
2021/08/09 07:25:29;;;;;;;10.00;3.33;;;;;;;19.42;66.58;101140.03;5074291;28;20052;-64
2021/08/09 07:27:56;;;;;;;12.15;3.53;;;;;;;19.53;66.37;101130.72;5073583;28;20040;-66
2021/08/09 07:30:24;;;;;;;14.13;3.65;;;;;;;19.49;66.72;101135.41;5074981;28;20055;-65
2021/08/09 07:32:58;;;;;;;14.73;3.65;;;;;;;19.59;66.22;101142.41;5073903;28;20048;-64
2021/08/09 07:35:27;;;;;;;9.68;2.95;;;;;;;19.64;66.30;101147.72;5062635;28;20051;-64
2021/08/09 07:37:55;;;;;;;9.82;3.60;;;;;;;19.84;65.93;101149.41;5074294;28;20055;-64
2021/08/09 07:40:22;;;;;;;16.15;3.25;;;;;;;19.81;67.16;101142.53;5072783;28;20055;-64
2021/08/09 07:42:57;;;;;;;12.30;3.33;;;;;;;19.86;66.45;101141.44;5068973;28;20051;-63
2021/08/09 07:45:24;;;;;;;9.02;3.38;;;;;;;20.02;66.07;101150.59;5073934;28;20412;-66
2021/08/09 07:47:55;;;;;;;10.70;2.85;;;;;;;19.90;65.96;101145.94;5073373;28;20395;-63
2021/08/09 07:50:24;;;;;;;8.90;3.05;;;;;;;19.79;66.29;101150.47;5077167;28;20048;-64
2021/08/09 07:52:51;;;;;;;9.52;3.47;;;;;;;19.92;66.56;101145.59;5078914;28;20048;-63
2021/08/09 07:55:19;;;;;;;8.82;3.10;;;;;;;19.89;66.10;101147.13;5076816;28;20064;-64
2021/08/09 07:57:47;;;;;;;14.68;3.22;;;;;;;19.94;66.24;101148.81;5077283;28;20534;-64
2021/08/09 08:00:16;;;;;;;13.32;3.65;;;;;;;19.91;66.47;101147.56;5077873;28;20082;-64
2021/08/09 08:02:50;;;;;;;16.85;5.97;;;;;;;19.88;65.99;101139.09;5062332;28;20059;-64
2021/08/09 08:05:19;;;;;;;21.30;5.82;;;;;;;19.99;65.30;101138.16;5091325;28;20060;-64
2021/08/09 08:07:49;;;;;;;15.07;4.63;;;;;;;20.10;65.41;101146.78;5058287;28;20052;-64
2021/08/09 08:10:18;;;;;;;14.95;4.05;;;;;;;20.13;65.16;101148.84;5058413;28;20063;-64
2021/08/09 08:12:46;;;;;;;12.77;3.47;;;;;;;20.11;64.99;101156.78;5061827;28;20056;-64
2021/08/09 08:15:16;;;;;;;15.73;3.88;;;;;;;20.12;65.28;101150.00;5076907;28;20402;-64
2021/08/09 08:17:44;;;;;;;12.98;3.88;;;;;;;20.22;64.83;101152.28;5077941;28;20526;-64
2021/08/09 08:20:13;;;;;;;9.10;3.33;;;;;;;20.22;64.55;101157.06;5078315;28;20051;-64
2021/08/09 08:22:40;;;;;;;11.05;3.35;;;;;;;20.21;64.73;101163.84;5078323;28;20052;-64
2021/08/09 08:25:10;;;;;;;12.20;3.60;;;;;;;20.28;64.55;101159.19;5077446;28;20059;-63
2021/08/09 08:27:39;;;;;;;;;;;;;;;20.20;64.95;101148.22;5059716;28;20048;-64
2021/08/09 08:30:08;;;;;;;11.27;3.75;;;;;;;20.28;64.86;101155.56;5075771;28;19920;-64
2021/08/09 08:32:56;;;;;;;14.82;4.15;;;;;;;20.25;64.98;101157.13;5067405;28;20044;-64
2021/08/09 08:35:23;;;;;;;13.13;3.20;;;;;;;20.40;64.44;101161.03;5077384;28;20495;-64
2021/08/09 08:37:53;;;;;;;14.20;3.70;;;;;;;20.37;64.62;101156.97;5077663;28;20071;-64
2021/08/09 08:40:21;;;;;;;14.85;3.63;;;;;;;20.64;63.80;101150.31;5077759;28;20048;-65
2021/08/09 08:42:49;;;;;;;14.48;4.00;;;;;;;20.70;63.09;101153.63;5063230;28;20056;-64
2021/08/09 08:45:18;;;;;;;14.95;6.05;;;;;;;20.73;63.00;101150.88;5073879;28;20048;-64
2021/08/09 08:47:48;;;;;;;12.93;4.57;;;;;;;20.73;62.73;101155.69;5076775;28;20048;-65
2021/08/09 08:50:19;;;;;;;;;;;;;;;20.51;63.41;101160.06;5078332;28;20047;-64
2021/08/09 08:52:50;;;;;;;14.65;4.75;;;;;;;20.69;63.32;101166.00;5077253;28;20433;-64
2021/08/09 08:55:19;;;;;;;15.93;4.07;;;;;;;20.87;62.86;101158.75;5075856;28;20048;-64
2021/08/09 08:57:46;;;;;;;10.32;3.90;;;;;;;20.73;62.36;101161.31;5094545;28;20048;-64
2021/08/09 09:00:15;;;;;;;8.93;3.47;;;;;;;20.73;62.63;101159.28;5095035;28;20044;-64
2021/08/09 09:02:42;;;;;;;13.50;4.00;;;;;;;20.80;62.18;101165.03;5095204;28;20055;-64
2021/08/09 09:05:18;;;;;;;13.70;4.55;;;;;;;20.85;62.61;101166.72;5094647;28;20499;-64
2021/08/09 09:07:48;;;;;;;8.32;3.05;;;;;;;21.04;61.90;101173.09;5095071;28;20051;-63
2021/08/09 09:10:29;;;;;;;13.57;3.42;;;;;;;20.92;61.79;101169.66;5057604;28;20051;-64
2021/08/09 09:13:07;;;;;;;11.85;3.50;;;;;;;20.71;61.84;101181.25;5080234;28;20051;-64
2021/08/09 09:15:56;;;;;;;10.65;3.17;;;;;;;21.14;61.03;101185.69;5091972;28;20487;-64
2021/08/09 09:18:28;;;;;;;15.87;3.30;;;;;;;21.15;60.68;101187.28;5095108;28;20071;-64
2021/08/09 09:20:55;;;;;;;14.35;3.45;;;;;;;20.96;61.73;101187.31;5077606;28;20056;-65
2021/08/09 09:23:24;;;;;;;15.00;4.40;;;;;;;21.24;60.92;101180.28;5076363;28;20540;-65
2021/08/09 09:25:52;;;;;;;12.40;3.47;;;;;;;21.56;59.52;101188.41;5075561;28;20051;-65
2021/08/09 09:28:22;;;;;;;8.45;3.13;;;;;;;21.80;58.59;101194.44;5094808;28;20059;-65
2021/08/09 09:30:50;;;;;;;8.20;3.25;;;;;;;21.87;57.75;101194.53;5076703;28;20047;-64
2021/08/09 09:33:18;;;;;;;10.45;3.08;;;;;;;21.79;58.29;101197.63;5075727;28;20058;-64
2021/08/09 09:35:49;;;;;;;12.40;3.33;;;;;;;21.67;58.70;101195.78;5076313;28;20048;-65
2021/08/09 09:38:17;;;;;;;11.85;3.25;;;;;;;21.74;57.78;101195.13;5090203;28;20067;-64
2021/08/09 09:40:44;;;;;;;13.25;2.90;;;;;;;21.74;58.21;101192.31;5093922;28;20498;-64
2021/08/09 09:43:22;;;;;;;9.68;2.88;;;;;;;21.93;58.08;101201.44;5075826;28;20044;-64
2021/08/09 09:45:55;;;;;;;10.13;2.95;;;;;;;21.68;57.93;101213.44;5090729;28;20044;-64
2021/08/09 09:48:34;;;;;;;11.63;3.20;;;;;;;21.59;58.68;101202.47;5083150;28;20052;-65
2021/08/09 09:51:12;;;;;;;11.18;3.42;;;;;;;21.67;58.33;101207.00;5088923;28;20055;-64
2021/08/09 09:53:41;;;;;;;9.77;2.78;;;;;;;21.74;58.46;101204.31;5093859;28;20051;-65
2021/08/09 09:56:09;;;;;;;12.73;3.58;;;;;;;21.59;58.52;101208.09;5093348;28;20052;-65
2021/08/09 09:58:38;;;;;;;14.55;3.03;;;;;;;21.76;58.32;101215.97;5091941;28;20056;-64
2021/08/09 10:01:07;;;;;;;10.38;3.05;;;;;;;21.87;57.27;101210.56;5094217;28;20051;-64
2021/08/09 10:03:35;;;;;;;9.07;3.45;;;;;;;21.56;57.93;101214.44;5094428;28;20051;-64
2021/08/09 10:06:03;;;;;;;9.50;3.00;;;;;;;21.48;58.75;101209.09;5093066;28;20135;-65
2021/08/09 10:08:40;;;;;;;9.77;3.60;;;;;;;21.59;58.37;101216.50;5094349;28;20535;-64
2021/08/09 10:11:08;;;;;;;6.80;2.50;;;;;;;21.72;58.00;101209.50;5093370;28;20048;-64
2021/08/09 10:13:36;;;;;;;11.90;3.03;;;;;;;21.98;57.15;101217.97;5091959;28;20059;-65
2021/08/09 10:16:11;;;;;;;18.38;3.67;;;;;;;22.04;56.97;101219.25;5071889;28;20051;-64
2021/08/09 10:18:50;;;;;;;10.00;3.13;;;;;;;22.14;56.78;101212.97;5094053;28;20255;-52
2021/08/09 10:21:18;;;;;;;9.05;3.03;;;;;;;22.56;55.57;101206.34;5093824;28;20394;-48
2021/08/09 10:23:49;;;;;;;8.07;2.83;;;;;;;22.90;54.36;101200.31;5094664;28;20742;-46
2021/08/09 10:26:32;;;;;;;8.25;3.30;;;;;;;23.11;53.59;101194.13;5093882;28;20422;-47
2021/08/09 10:29:03;;;;;;;8.95;2.70;;;;;;;23.21;53.55;101190.59;5087079;28;20052;-51
2021/08/09 10:31:47;;;;;;;8.48;2.60;;;;;;;23.29;53.15;101183.88;5080936;28;20141;-48
2021/08/09 10:34:31;;;;;;;8.95;2.65;;;;;;;23.31;53.21;101173.03;5055556;28;20052;-45
2021/08/09 10:37:08;;;;;;;8.43;2.80;;;;;;;23.37;52.96;101182.75;5077542;28;20052;-46
2021/08/09 10:40:02;;;;;;;7.20;2.50;;;;;;;23.39;52.93;101177.53;5090022;28;20053;-47
2021/08/09 10:42:37;;;;;;;8.45;3.10;;;;;;;23.43;52.33;101181.97;5093125;28;20056;-48
2021/08/09 10:45:07;;;;;;;8.18;3.30;;;;;;;23.48;52.47;101183.66;5087230;28;20056;-48
2021/08/09 10:47:46;;;;;;;7.38;2.97;;;;;;;23.60;52.04;101188.16;5083107;28;20062;-50
2021/08/09 10:50:22;;;;;;;9.85;3.88;;;;;;;23.51;52.26;101182.88;5093624;28;20443;-47
2021/08/09 10:52:50;;;;;;;9.05;3.70;;;;;;;23.48;51.04;101194.91;5093089;28;20062;-46
2021/08/09 10:55:30;;;;;;;11.35;3.90;;;;;;;23.29;52.80;101187.47;5075584;28;20055;-48
2021/08/09 10:57:58;;;;;;;10.30;3.58;;;;;;;23.35;52.38;101182.31;5067539;28;20048;-49
2021/08/09 11:00:38;;;;;;;8.82;3.83;;;;;;;23.35;52.21;101188.75;5075385;28;20040;-49
2021/08/09 11:03:13;;;;;;;7.68;3.10;;;;;;;23.42;52.30;101185.19;5093722;28;20052;-47
2021/08/09 11:05:40;;;;;;;7.60;3.65;;;;;;;23.53;51.81;101179.66;5072066;28;20422;-46
2021/08/09 11:08:17;;;;;;;22.50;3.92;;;;;;;23.62;51.48;101185.75;5075515;28;20055;-54
2021/08/09 11:10:51;;;;;;;12.90;3.55;;;;;;;23.55;51.56;101182.88;5055485;28;20052;-46
2021/08/09 11:13:18;;;;;;;10.98;3.13;;;;;;;23.56;51.59;101178.88;5082400;28;20059;-52
2021/08/09 11:16:12;;;;;;;15.35;3.40;;;;;;;23.66;51.13;101176.13;5092805;28;20063;-47
2021/08/09 11:18:39;;;;;;;11.93;3.40;;;;;;;23.69;51.12;101172.56;5065765;28;20045;-46
2021/08/09 11:21:08;;;;;;;12.50;3.45;;;;;;;23.64;51.33;101166.50;5079586;28;20536;-47
2021/08/09 11:23:45;;;;;;;9.47;3.20;;;;;;;23.66;51.29;101169.72;5093329;28;20052;-49
2021/08/09 11:26:25;;;;;;;10.43;3.20;;;;;;;23.83;50.67;101183.91;5079890;28;20059;-47
2021/08/09 11:29:05;;;;;;;8.67;3.30;;;;;;;23.70;50.73;101182.59;5099548;28;20056;-49
2021/08/09 11:31:59;;;;;;;12.70;3.22;;;;;;;23.78;50.71;101173.00;5097731;28;20055;-47
2021/08/09 11:34:26;;;;;;;7.22;3.13;;;;;;;23.76;50.63;101174.59;5094550;28;20056;-46
2021/08/09 11:37:03;;;;;;;13.18;3.60;;;;;;;23.76;52.95;101183.06;5098617;28;20060;-49